createdAt,value
2023-04-03T10:57:04.680Z,100920.19
2023-04-03T10:59:42.890Z,100917.63
2023-04-03T11:02:31.758Z,100902.63
2023-04-03T11:05:19.330Z,100901.09
2023-04-03T11:07:52.450Z,100901.63
2023-04-03T11:10:25.122Z,100902.63
2023-04-03T11:13:14.209Z,100897.84
2023-04-03T11:15:40.980Z,100894.97
2023-04-03T11:18:12.114Z,100894.88
2023-04-03T11:20:43.008Z,100885.13
2023-04-03T11:23:45.991Z,100892.91
2023-04-03T11:26:22.647Z,100880.25
2023-04-03T11:28:55.026Z,100879.19
2023-04-03T11:31:43.202Z,100894.47
2023-04-03T11:34:21.794Z,100884.63
2023-04-03T11:36:57.199Z,100882.09
2023-04-03T11:39:31.938Z,100892.84
2023-04-03T11:42:26.468Z,100876.25
2023-04-03T11:45:19.131Z,100886.31
2023-04-03T11:47:54.005Z,100876.91
2023-04-03T11:50:36.017Z,100875.19
2023-04-03T11:53:40.769Z,100857.00
2023-04-03T11:56:25.454Z,100858.81
2023-04-03T11:59:07.483Z,100865.94
2023-04-03T12:01:45.045Z,100871.34
2023-04-03T12:04:15.835Z,100864.94
2023-04-03T12:06:51.285Z,100860.81
2023-04-03T12:09:36.587Z,100850.44
2023-04-03T12:12:33.399Z,100846.63
2023-04-03T12:15:20.932Z,100850.38
2023-04-03T12:17:48.374Z,100843.22
2023-04-03T12:20:52.000Z,100844.28
2023-04-03T12:23:32.096Z,100837.84
2023-04-03T12:26:22.802Z,100837.16
2023-04-03T12:28:51.709Z,100830.19
2023-04-03T12:31:19.200Z,100825.69
2023-04-03T12:34:19.257Z,100838.41
2023-04-03T12:37:01.262Z,100833.63
2023-04-03T12:39:40.997Z,100822.97
2023-04-03T12:42:30.594Z,100816.91
2023-04-03T12:45:20.553Z,100822.72
2023-04-03T12:47:49.778Z,100817.06
2023-04-03T12:50:31.054Z,100813.88
2023-04-03T12:53:02.509Z,100810.09
2023-04-03T12:55:29.153Z,100802.25
2023-04-03T12:57:57.318Z,100802.44
2023-04-03T13:00:40.273Z,100807.59
2023-04-03T13:03:20.747Z,100798.91
2023-04-03T13:05:47.507Z,100808.28
2023-04-03T13:08:17.123Z,100804.78
2023-04-03T13:11:09.212Z,100805.09
2023-04-03T13:13:35.884Z,100808.78
2023-04-03T13:16:11.291Z,100786.16
2023-04-03T13:18:39.278Z,100788.53
2023-04-03T13:21:08.969Z,100798.75
2023-04-03T13:23:39.507Z,100790.84
2023-04-03T13:26:07.462Z,100792.47
2023-04-03T13:28:34.796Z,100792.00
2023-04-03T13:31:19.547Z,100796.63
2023-04-03T13:34:04.156Z,100798.66
2023-04-03T13:36:40.453Z,100796.41
2023-04-03T13:39:16.335Z,100787.00
2023-04-03T13:41:46.255Z,100790.50
2023-04-03T13:44:22.430Z,100801.97
2023-04-03T13:46:58.342Z,100792.19
2023-04-03T13:49:31.152Z,100789.56
2023-04-03T13:52:07.412Z,100790.31
2023-04-03T13:54:39.961Z,100781.81
2023-04-03T13:57:18.235Z,100775.53
2023-04-03T13:59:45.857Z,100776.69
2023-04-03T14:02:30.466Z,100782.72
2023-04-03T14:05:02.189Z,100787.78
2023-04-03T14:07:31.924Z,100777.50
2023-04-03T14:09:59.266Z,100777.00
2023-04-03T14:12:32.753Z,100776.69
2023-04-03T14:15:02.707Z,100778.28
2023-04-03T14:17:29.795Z,100770.69
2023-04-03T14:19:58.202Z,100773.28
2023-04-03T14:22:29.904Z,100772.56
2023-04-03T14:24:57.181Z,100760.56
2023-04-03T14:27:41.328Z,100749.41
2023-04-03T14:30:14.612Z,100742.75
2023-04-03T14:32:41.435Z,100735.44
2023-04-03T14:35:08.369Z,100741.59
2023-04-03T14:37:35.079Z,100745.25
2023-04-03T14:40:04.742Z,100747.19
2023-04-03T14:42:36.796Z,100735.97
2023-04-03T14:45:08.114Z,100752.13
2023-04-03T14:47:38.132Z,100745.47
2023-04-03T14:50:06.072Z,100746.38
2023-04-03T14:52:37.060Z,100748.19
2023-04-03T14:55:07.188Z,100746.66
2023-04-03T14:57:34.538Z,100752.28
2023-04-03T15:00:02.611Z,100753.06
2023-04-03T15:02:35.112Z,100745.44
2023-04-03T15:05:05.162Z,100750.81
2023-04-03T15:07:35.293Z,100746.59
2023-04-03T15:10:08.010Z,100745.00
2023-04-03T15:12:34.696Z,100750.41
2023-04-03T15:15:03.656Z,100748.69
2023-04-03T15:17:30.626Z,100741.69
2023-04-03T15:19:57.256Z,100746.25
2023-04-03T15:22:23.908Z,100740.19
2023-04-03T15:24:50.527Z,100746.50
2023-04-03T15:27:17.117Z,100750.22
2023-04-03T15:29:49.129Z,100745.84
2023-04-03T15:32:16.038Z,100743.28
2023-04-03T15:34:42.514Z,100743.47
2023-04-03T15:37:09.016Z,100747.13
2023-04-03T15:39:35.673Z,100750.53
2023-04-03T15:42:07.185Z,100745.34
2023-04-03T15:44:38.479Z,100737.47
2023-04-03T15:47:05.732Z,100742.84
2023-04-03T15:49:34.100Z,100733.22
2023-04-03T15:52:01.018Z,100744.63
2023-04-03T15:54:29.710Z,100747.47
2023-04-03T15:56:56.736Z,100748.44
2023-04-03T15:59:23.479Z,100737.06
2023-04-03T16:01:51.923Z,100741.44
2023-04-03T16:04:19.483Z,100742.44
2023-04-03T16:06:47.460Z,100743.41
2023-04-03T16:09:13.992Z,100740.72
2023-04-03T16:11:41.755Z,100736.34
2023-04-03T16:14:08.787Z,100738.28
2023-04-03T16:16:36.256Z,100731.28
2023-04-03T16:19:02.981Z,100736.75
2023-04-03T16:21:29.846Z,100735.00
2023-04-03T16:23:59.397Z,100737.69
2023-04-03T16:26:26.700Z,100746.47
2023-04-03T16:28:54.203Z,100742.16
2023-04-03T16:31:21.885Z,100749.31
2023-04-03T16:33:48.395Z,100741.50
2023-04-03T16:36:14.798Z,100746.91
2023-04-03T16:38:42.208Z,100751.34
2023-04-03T16:41:08.672Z,100751.47
2023-04-03T16:43:36.496Z,100751.44
2023-04-03T16:46:03.469Z,100761.19
2023-04-03T16:48:31.382Z,100755.97
2023-04-03T16:50:58.124Z,100760.47
2023-04-03T16:53:26.327Z,100759.72
2023-04-03T16:55:53.148Z,100764.19
2023-04-03T16:58:21.737Z,100765.97
2023-04-03T17:00:49.886Z,100769.63
2023-04-03T17:03:16.556Z,100764.44
2023-04-03T17:05:44.646Z,100767.09
2023-04-03T17:08:11.168Z,100768.91
2023-04-03T17:10:37.759Z,100766.38
2023-04-03T17:13:04.494Z,100769.09
2023-04-03T17:15:31.562Z,100771.84
2023-04-03T17:17:59.241Z,100771.91
2023-04-03T17:20:25.948Z,100776.41
2023-04-03T17:22:54.749Z,100776.44
2023-04-03T17:25:21.416Z,100778.22
2023-04-03T17:27:47.794Z,100779.13
2023-04-03T17:30:14.658Z,100773.06
2023-04-03T17:32:41.457Z,100783.72
2023-04-03T17:35:10.179Z,100780.38
2023-04-03T17:37:39.151Z,100778.28
2023-04-03T17:40:08.905Z,100780.03
2023-04-03T17:42:35.896Z,100786.34
2023-04-03T17:45:04.964Z,100787.41
2023-04-03T17:47:31.397Z,100783.09
2023-04-03T17:49:58.192Z,100791.97
2023-04-03T17:52:26.869Z,100786.72
2023-04-03T17:54:56.161Z,100792.97
2023-04-03T17:57:22.815Z,100796.56
2023-04-03T17:59:49.571Z,100797.50
2023-04-03T18:02:16.276Z,100796.72
2023-04-03T18:04:42.993Z,100801.19
2023-04-03T18:07:11.922Z,100791.59
2023-04-03T18:09:41.113Z,100802.16
2023-04-03T18:12:09.193Z,100797.81
2023-04-03T18:14:37.335Z,100796.03
2023-04-03T18:17:04.040Z,100803.97
2023-04-03T18:19:30.659Z,100804.88
2023-04-03T18:22:00.509Z,100795.25
2023-04-03T18:24:30.785Z,100799.69
2023-04-03T18:27:13.380Z,100800.59
2023-04-03T18:29:44.185Z,100798.84
2023-04-03T18:32:13.182Z,100809.44
2023-04-03T18:34:40.947Z,100810.38
2023-04-03T18:37:08.359Z,100814.75
2023-04-03T18:39:35.102Z,100804.28
2023-04-03T18:42:16.847Z,100804.31
2023-04-03T18:44:48.041Z,100813.13
2023-04-03T18:47:14.914Z,100810.53
2023-04-03T18:49:42.971Z,100814.91
2023-04-03T18:52:11.032Z,100819.28
2023-04-03T18:54:38.897Z,100818.47
2023-04-03T18:57:05.806Z,100829.00
2023-04-03T18:59:33.885Z,100821.13
2023-04-03T19:02:01.196Z,100828.16
2023-04-03T19:04:28.762Z,100836.91
2023-04-03T19:06:55.417Z,100834.28
2023-04-03T19:09:22.277Z,100831.69
2023-04-03T19:11:48.712Z,100838.69
2023-04-03T19:14:16.976Z,100832.59
2023-04-03T19:16:45.099Z,100841.34
2023-04-03T19:19:12.089Z,100839.63
2023-04-03T19:21:41.843Z,100844.00
2023-04-03T19:24:12.897Z,100846.66
2023-04-03T19:26:41.012Z,100856.31
2023-04-03T19:29:07.812Z,100858.03
2023-04-03T19:31:36.828Z,100861.53
2023-04-03T19:34:05.323Z,100864.19
2023-04-03T19:36:33.151Z,100856.34
2023-04-03T19:39:00.686Z,100858.94
2023-04-03T19:41:34.186Z,100863.34
2023-04-03T19:44:01.156Z,100867.72
2023-04-03T19:46:29.654Z,100869.47
2023-04-03T19:48:56.842Z,100870.34
2023-04-03T19:51:23.473Z,100872.97
2023-04-03T19:53:50.470Z,100875.63
2023-04-03T19:56:17.343Z,100874.72
2023-04-03T19:58:44.202Z,100872.97
2023-04-03T20:01:11.855Z,100873.88
2023-04-03T20:03:38.402Z,100878.25
2023-04-03T20:06:06.906Z,100883.47
2023-04-03T20:08:33.682Z,100879.09
2023-04-03T20:11:00.323Z,100879.09
2023-04-03T20:13:27.531Z,100879.97
2023-04-03T20:15:54.239Z,100884.31
2023-04-03T20:18:21.430Z,100879.09
2023-04-03T20:20:59.518Z,100886.09
2023-04-03T20:23:27.741Z,100879.06
2023-04-03T20:26:09.258Z,100878.22
2023-04-03T20:28:38.289Z,100879.94
2023-04-03T20:31:07.019Z,100884.28
2023-04-03T20:33:35.518Z,100879.91
2023-04-03T20:36:04.636Z,100880.78
2023-04-03T20:38:32.998Z,100886.91
2023-04-03T20:41:01.783Z,100883.41
2023-04-03T20:43:29.434Z,100879.03
2023-04-03T20:45:58.136Z,100885.97
2023-04-03T20:48:29.673Z,100870.25
2023-04-03T20:50:57.571Z,100880.72
2023-04-03T20:53:26.877Z,100877.22
2023-04-03T20:56:11.978Z,100876.34
2023-04-03T20:58:40.754Z,100875.47
2023-04-03T21:01:22.974Z,100872.81
2023-04-03T21:03:51.879Z,100874.56
2023-04-03T21:06:56.481Z,100868.44
2023-04-03T21:10:00.761Z,100864.94
2023-04-03T21:13:04.990Z,100860.53
2023-04-03T21:15:46.997Z,100857.91
2023-04-03T21:18:14.765Z,100864.03
2023-04-03T21:20:43.743Z,100856.16
2023-04-03T21:23:15.073Z,100857.88
2023-04-03T21:25:41.727Z,100860.47
2023-04-03T21:28:08.889Z,100859.59
2023-04-03T21:30:37.128Z,100856.97
2023-04-03T21:33:06.043Z,100851.75
2023-04-03T21:35:34.544Z,100856.91
2023-04-03T21:38:01.055Z,100857.81
2023-04-03T21:40:27.515Z,100849.09
2023-04-03T21:42:57.104Z,100852.56
2023-04-03T21:45:24.167Z,100857.75
2023-04-03T21:47:51.677Z,100855.97
2023-04-03T21:50:22.193Z,100866.41
2023-04-03T21:52:55.773Z,100849.81
2023-04-03T21:55:22.582Z,100851.56
2023-04-03T21:57:55.783Z,100849.78
2023-04-03T22:00:23.040Z,100853.28
2023-04-03T22:03:04.096Z,100846.31
2023-04-03T22:05:37.423Z,100846.22
2023-04-03T22:08:04.243Z,100845.34
2023-04-03T22:10:30.837Z,100849.69
2023-04-03T22:12:58.351Z,100850.56
2023-04-03T22:15:25.311Z,100854.00
2023-04-03T22:17:53.332Z,100852.22
2023-04-03T22:20:20.228Z,100853.94
2023-04-03T22:22:52.885Z,100850.41
2023-04-03T22:25:19.531Z,100856.44
2023-04-03T22:27:46.056Z,100855.53
2023-04-03T22:30:15.958Z,100852.00
2023-04-03T22:32:42.612Z,100852.88
2023-04-03T22:35:09.622Z,100848.53
2023-04-03T22:37:36.481Z,100853.72
2023-04-03T22:40:04.721Z,100857.13
2023-04-03T22:42:31.751Z,100856.25
2023-04-03T22:44:58.504Z,100858.03
2023-04-03T22:47:24.930Z,100857.97
2023-04-03T22:49:51.658Z,100858.81
2023-04-03T22:52:18.872Z,100860.50
2023-04-03T22:54:48.595Z,100856.97
2023-04-03T22:57:15.357Z,100852.59
2023-04-03T22:59:41.802Z,100853.47
2023-04-03T23:02:08.202Z,100860.41
2023-04-03T23:04:35.048Z,100860.38
2023-04-03T23:07:02.220Z,100855.13
2023-04-03T23:09:28.888Z,100863.81
2023-04-03T23:11:55.548Z,100856.00
2023-04-03T23:14:23.776Z,100854.22
2023-04-03T23:16:51.975Z,100857.66
2023-04-03T23:19:21.106Z,100854.19
2023-04-03T23:21:48.497Z,100852.44
2023-04-03T23:24:16.188Z,100849.81
2023-04-03T23:26:43.195Z,100853.34
2023-04-03T23:29:10.197Z,100853.34
2023-04-03T23:31:39.372Z,100842.91
2023-04-03T23:34:06.692Z,100845.50
2023-04-03T23:36:33.125Z,100842.09
2023-04-03T23:38:59.543Z,100842.09
2023-04-03T23:41:25.995Z,100854.28
2023-04-03T23:43:53.028Z,100849.94
2023-04-03T23:46:20.239Z,100853.38
2023-04-03T23:48:48.531Z,100844.69
2023-04-03T23:51:15.251Z,100845.56
2023-04-03T23:53:42.355Z,100847.31
2023-04-03T23:56:12.680Z,100844.75
2023-04-03T23:58:40.500Z,100841.28
